Time;durP1;ratioP1;P1;durP2;ratioP2;P2;SDS_P1;SDS_P2;PMS_P1;PMS_P2;Temp;Humidity;BMP_temperature;BMP_pressure;BME280_temperature;BME280_humidity;BME280_pressure;Samples;Min_cycle;Max_cycle;Signal;HPM_P1;HPM_P2
2023/06/22 00:00:50;;;;;;;10.70;9.90;;;24.00;99.90;;;;;;5006300;28;20049;-74
2023/06/22 00:03:20;;;;;;;10.20;9.50;;;23.90;99.90;;;;;;5010393;28;20041;-74
2023/06/22 00:05:47;;;;;;;10.60;9.63;;;23.90;99.90;;;;;;4994649;28;20030;-74
2023/06/22 00:08:13;;;;;;;10.65;9.88;;;23.80;99.90;;;;;;4994215;28;20044;-74
2023/06/22 00:10:39;;;;;;;10.70;9.90;;;23.90;99.90;;;;;;4993591;28;20061;-74
2023/06/22 00:13:06;;;;;;;11.13;10.18;;;23.90;99.90;;;;;;4994423;28;20029;-74
2023/06/22 00:15:32;;;;;;;10.68;9.68;;;23.80;99.90;;;;;;4992592;28;20038;-74
2023/06/22 00:17:58;;;;;;;9.80;9.10;;;23.80;99.90;;;;;;5009993;28;20034;-74
2023/06/22 00:20:27;;;;;;;10.68;9.77;;;23.80;99.90;;;;;;4994391;28;20471;-74
2023/06/22 00:23:08;;;;;;;9.73;8.70;;;23.80;99.90;;;;;;4993667;28;20042;-74
2023/06/22 00:25:37;;;;;;;9.70;8.95;;;23.70;99.90;;;;;;4994301;28;20483;-75
2023/06/22 00:28:04;;;;;;;9.15;8.30;;;23.70;99.90;;;;;;5009069;28;20034;-74
2023/06/22 00:30:30;;;;;;;9.95;9.05;;;23.70;99.90;;;;;;5008887;28;20047;-74
2023/06/22 00:32:56;;;;;;;9.13;8.43;;;23.70;99.90;;;;;;4994487;28;20019;-75
2023/06/22 00:35:22;;;;;;;9.65;8.85;;;23.60;99.90;;;;;;4994152;28;20043;-74
2023/06/22 00:37:49;;;;;;;9.23;8.45;;;23.60;99.90;;;;;;4994203;28;20038;-75
2023/06/22 00:40:17;;;;;;;9.57;8.68;;;23.60;99.90;;;;;;4993746;28;20387;-74
2023/06/22 00:42:43;;;;;;;9.75;8.90;;;23.60;99.90;;;;;;4994305;28;20033;-75
2023/06/22 00:45:09;;;;;;;9.05;8.25;;;23.60;99.90;;;;;;4993608;28;20027;-74
2023/06/22 00:47:36;;;;;;;9.68;9.00;;;23.60;99.90;;;;;;4994210;28;20031;-74
2023/06/22 00:50:03;;;;;;;9.68;8.82;;;23.60;99.90;;;;;;4992232;28;20042;-72
2023/06/22 00:52:30;;;;;;;10.32;9.50;;;23.60;99.90;;;;;;4992639;28;20030;-74
2023/06/22 00:54:57;;;;;;;10.43;9.52;;;23.60;99.90;;;;;;5008638;28;20022;-74
2023/06/22 00:57:27;;;;;;;9.52;8.82;;;23.60;99.90;;;;;;4992743;28;20049;-74
2023/06/22 00:59:54;;;;;;;;;;;23.70;99.90;;;;;;5009048;28;20034;-75
2023/06/22 01:02:20;;;;;;;9.23;8.35;;;23.80;99.90;;;;;;4991707;28;19913;-75
2023/06/22 01:04:46;;;;;;;10.75;9.88;;;23.70;99.90;;;;;;4993921;28;20034;-74
2023/06/22 01:07:28;;;;;;;11.82;10.95;;;23.80;99.90;;;;;;5008683;28;20045;-74
2023/06/22 01:09:57;;;;;;;11.02;10.13;;;23.70;99.90;;;;;;4993361;28;20042;-74
2023/06/22 01:12:23;;;;;;;10.95;10.15;;;23.70;99.90;;;;;;4993431;28;20031;-74
2023/06/22 01:15:04;;;;;;;12.25;11.35;;;23.60;99.90;;;;;;5008613;28;20027;-74
2023/06/22 01:17:31;;;;;;;14.90;14.00;;;23.60;99.90;;;;;;5006622;28;20427;-75
2023/06/22 01:19:57;;;;;;;14.63;13.52;;;23.60;99.90;;;;;;5007984;28;20041;-74
2023/06/22 01:22:30;;;;;;;16.63;15.43;;;23.60;99.90;;;;;;5008342;28;20400;-74
2023/06/22 01:24:59;;;;;;;14.55;13.55;;;23.60;99.90;;;;;;5008279;28;20029;-74
2023/06/22 01:27:45;;;;;;;17.13;15.93;;;23.60;99.90;;;;;;5008196;28;20391;-74
2023/06/22 01:30:11;;;;;;;14.48;13.30;;;23.60;99.90;;;;;;5008154;28;20057;-74
2023/06/22 01:32:38;;;;;;;18.00;16.80;;;23.50;99.90;;;;;;5028511;28;20034;-74
2023/06/22 01:35:05;;;;;;;15.77;14.68;;;23.40;99.90;;;;;;5028104;28;20490;-75
2023/06/22 01:37:33;;;;;;;16.50;15.43;;;23.40;99.90;;;;;;5027487;28;20045;-74
2023/06/22 01:39:59;;;;;;;17.33;16.27;;;23.30;99.90;;;;;;5027977;28;20046;-74
2023/06/22 01:42:25;;;;;;;25.13;23.48;;;23.40;99.90;;;;;;5044298;28;20499;-74
2023/06/22 01:44:54;;;;;;;26.90;25.27;;;23.40;99.90;;;;;;5012824;28;20038;-75
2023/06/22 01:47:21;;;;;;;21.20;19.85;;;23.30;99.90;;;;;;5026944;28;20372;-74
2023/06/22 01:49:48;;;;;;;22.05;20.60;;;23.20;99.90;;;;;;5011355;28;20042;-74
2023/06/22 01:52:14;;;;;;;20.60;19.30;;;23.20;99.90;;;;;;5011256;28;20029;-75
2023/06/22 01:54:40;;;;;;;18.67;17.33;;;23.00;99.90;;;;;;5027911;28;20439;-74
2023/06/22 01:57:06;;;;;;;21.05;19.80;;;23.10;99.90;;;;;;5027460;28;20041;-74
2023/06/22 01:59:40;;;;;;;16.15;15.02;;;23.20;99.90;;;;;;5027351;28;20030;-75
2023/06/22 02:02:07;;;;;;;19.80;18.58;;;23.20;99.90;;;;;;5021976;28;20375;-74
2023/06/22 02:04:48;;;;;;;27.02;25.30;;;23.20;99.90;;;;;;5002906;28;20045;-74
2023/06/22 02:07:16;;;;;;;19.58;18.33;;;23.10;99.90;;;;;;5025280;28;20033;-74
2023/06/22 02:09:45;;;;;;;24.58;22.88;;;23.10;99.90;;;;;;5006255;28;20049;-74
2023/06/22 02:12:12;;;;;;;32.13;30.23;;;23.00;99.90;;;;;;5023006;28;20046;-74
2023/06/22 02:14:39;;;;;;;46.55;43.95;;;22.90;99.90;;;;;;5042854;28;20026;-75
2023/06/22 02:17:07;;;;;;;48.22;45.33;;;23.00;99.90;;;;;;5041992;28;20046;-74
2023/06/22 02:19:36;;;;;;;15.85;14.10;;;23.00;99.90;;;;;;5011177;28;20030;-74
2023/06/22 02:22:03;;;;;;;10.55;9.70;;;22.90;99.90;;;;;;5010436;28;20029;-73
2023/06/22 02:24:31;;;;;;;9.27;8.48;;;22.70;99.90;;;;;;5011176;28;20042;-75
2023/06/22 02:26:58;;;;;;;9.32;8.50;;;22.70;99.90;;;;;;5009308;28;20355;-74
2023/06/22 02:29:24;;;;;;;11.07;9.45;;;22.70;99.90;;;;;;5010235;28;20034;-74
2023/06/22 02:31:50;;;;;;;9.15;8.27;;;22.70;99.90;;;;;;4997051;28;20391;-74
2023/06/22 02:34:18;;;;;;;9.23;8.30;;;22.70;99.90;;;;;;5015007;28;20026;-75
2023/06/22 02:36:51;;;;;;;8.45;7.63;;;22.60;99.90;;;;;;5013606;28;20028;-74
2023/06/22 02:39:24;;;;;;;8.20;7.45;;;22.50;99.90;;;;;;5016147;28;20034;-74
2023/06/22 02:41:54;;;;;;;8.27;7.50;;;22.60;99.90;;;;;;5015830;28;20052;-74
2023/06/22 02:44:20;;;;;;;7.75;6.95;;;22.60;99.90;;;;;;5014962;28;20034;-75
2023/06/22 02:46:46;;;;;;;7.88;6.93;;;22.60;99.90;;;;;;5014175;28;20038;-74
2023/06/22 02:49:13;;;;;;;7.28;6.57;;;22.60;99.90;;;;;;5014719;28;20057;-75
2023/06/22 02:51:41;;;;;;;10.25;6.90;;;22.60;99.90;;;;;;5022765;28;20073;-75
2023/06/22 02:54:07;;;;;;;7.32;6.40;;;22.60;99.90;;;;;;5047546;28;20018;-74
2023/06/22 02:56:34;;;;;;;8.07;6.35;;;22.50;99.90;;;;;;5047570;28;20483;-74
2023/06/22 02:59:01;;;;;;;7.38;6.50;;;22.50;99.90;;;;;;5015841;28;20030;-74
2023/06/22 03:01:27;;;;;;;7.15;6.45;;;22.60;99.90;;;;;;5030051;28;20038;-74
2023/06/22 03:03:54;;;;;;;8.23;6.80;;;22.60;99.90;;;;;;5031060;28;20026;-74
2023/06/22 03:06:23;;;;;;;6.78;6.05;;;22.50;99.90;;;;;;5015019;28;20018;-75
2023/06/22 03:08:50;;;;;;;6.47;5.88;;;22.50;99.90;;;;;;5030404;28;20026;-74
2023/06/22 03:11:16;;;;;;;7.18;6.47;;;22.60;99.90;;;;;;5030502;28;20045;-74
2023/06/22 03:13:43;;;;;;;7.38;6.68;;;22.50;99.90;;;;;;5015495;28;20056;-75
2023/06/22 03:16:09;;;;;;;7.82;6.20;;;22.40;99.90;;;;;;5029706;28;20038;-74
2023/06/22 03:18:35;;;;;;;9.82;6.82;;;22.40;99.90;;;;;;5030804;28;20034;-74
2023/06/22 03:21:02;;;;;;;9.38;6.32;;;22.40;99.90;;;;;;5014705;28;20364;-75
2023/06/22 03:23:28;;;;;;;8.20;6.75;;;22.40;99.90;;;;;;5015337;28;20033;-74
2023/06/22 03:25:55;;;;;;;12.27;7.72;;;22.40;99.90;;;;;;5013929;28;20471;-74
2023/06/22 03:28:21;;;;;;;17.10;15.85;;;22.40;99.90;;;;;;5014256;28;20038;-74
2023/06/22 03:30:47;;;;;;;16.58;14.80;;;22.30;99.90;;;;;;5014344;28;20046;-73
2023/06/22 03:33:14;;;;;;;16.55;13.55;;;22.10;99.90;;;;;;5030658;28;20491;-74
2023/06/22 03:35:40;;;;;;;13.57;12.23;;;21.90;99.90;;;;;;5029853;28;20038;-74
2023/06/22 03:38:06;;;;;;;12.77;11.57;;;21.80;99.90;;;;;;5015123;28;20506;-73
2023/06/22 03:40:32;;;;;;;12.10;10.82;;;21.60;99.90;;;;;;5014882;28;20029;-73
2023/06/22 03:42:58;;;;;;;13.40;10.38;;;21.50;99.90;;;;;;5012624;28;20045;-73
2023/06/22 03:45:24;;;;;;;11.48;9.32;;;21.40;99.90;;;;;;5014515;28;20029;-73
2023/06/22 03:47:50;;;;;;;10.27;9.15;;;21.40;99.90;;;;;;5013558;28;20026;-73
2023/06/22 03:50:16;;;;;;;12.50;10.75;;;21.40;99.90;;;;;;5014526;28;20048;-73
2023/06/22 03:52:42;;;;;;;12.52;11.23;;;21.40;99.90;;;;;;5014434;28;20030;-72
2023/06/22 03:55:09;;;;;;;14.65;11.05;;;21.40;99.90;;;;;;5014708;28;20037;-73
2023/06/22 03:57:35;;;;;;;11.20;10.20;;;21.40;99.90;;;;;;5014427;28;20034;-73
2023/06/22 04:00:02;;;;;;;11.57;10.02;;;21.50;99.90;;;;;;5013443;28;20042;-73
2023/06/22 04:02:28;;;;;;;14.60;10.60;;;21.40;99.90;;;;;;5028650;28;20110;-73
2023/06/22 04:04:54;;;;;;;11.57;10.30;;;21.30;99.90;;;;;;5014185;28;20029;-73
2023/06/22 04:07:20;;;;;;;10.93;9.68;;;21.30;99.90;;;;;;5014080;28;20026;-73
2023/06/22 04:09:47;;;;;;;12.43;10.35;;;21.30;99.90;;;;;;5013266;28;20037;-73
2023/06/22 04:12:13;;;;;;;12.02;10.85;;;21.20;99.90;;;;;;5014033;28;20022;-73
2023/06/22 04:14:39;;;;;;;11.32;10.18;;;21.30;99.90;;;;;;5014480;28;20485;-74
2023/06/22 04:17:05;;;;;;;11.25;10.25;;;21.20;99.90;;;;;;5013522;28;20038;-73
2023/06/22 04:19:31;;;;;;;13.43;11.00;;;21.20;99.90;;;;;;5029349;28;20368;-73
2023/06/22 04:21:57;;;;;;;11.82;10.55;;;21.30;99.90;;;;;;5014016;28;20030;-74
2023/06/22 04:24:23;;;;;;;11.45;10.35;;;21.40;99.90;;;;;;5014217;28;20390;-73
2023/06/22 04:26:54;;;;;;;11.00;9.95;;;21.40;99.90;;;;;;5013805;28;20042;-73
2023/06/22 04:29:21;;;;;;;10.90;9.85;;;21.40;99.90;;;;;;5012680;28;20056;-73
2023/06/22 04:31:50;;;;;;;10.30;9.30;;;21.40;99.90;;;;;;5013287;28;20052;-74
2023/06/22 04:34:17;;;;;;;10.65;9.23;;;21.30;99.90;;;;;;5012598;28;20037;-73
2023/06/22 04:36:43;;;;;;;12.45;9.80;;;21.00;99.90;;;;;;5000782;28;20376;-72
2023/06/22 04:39:10;;;;;;;13.85;10.88;;;20.90;99.90;;;;;;4994460;28;20038;-73
2023/06/22 04:41:42;;;;;;;13.70;10.30;;;20.80;99.90;;;;;;5012316;28;20034;-73
2023/06/22 04:44:12;;;;;;;13.30;10.35;;;20.80;99.90;;;;;;5028552;28;20030;-73
2023/06/22 04:46:40;;;;;;;11.18;8.68;;;20.80;99.90;;;;;;5028281;28;20038;-73
2023/06/22 04:49:12;;;;;;;11.10;8.23;;;20.80;99.90;;;;;;4995041;28;20054;-73
2023/06/22 04:51:42;;;;;;;9.90;7.75;;;20.80;99.90;;;;;;5005321;28;20045;-74
2023/06/22 04:54:08;;;;;;;10.48;7.30;;;20.70;99.90;;;;;;5012444;28;20622;-73
2023/06/22 04:56:34;;;;;;;9.23;7.82;;;20.60;99.90;;;;;;5013335;28;20044;-73
2023/06/22 04:59:01;;;;;;;8.32;7.28;;;20.60;99.90;;;;;;5013747;28;20034;-74
2023/06/22 05:01:28;;;;;;;10.02;7.72;;;20.70;99.90;;;;;;5012561;28;20050;-73
2023/06/22 05:03:58;;;;;;;10.40;7.82;;;20.80;99.90;;;;;;5013469;28;20022;-73
2023/06/22 05:06:24;;;;;;;10.00;8.02;;;20.70;99.90;;;;;;5013148;28;20030;-73
2023/06/22 05:08:57;;;;;;;9.98;8.57;;;20.60;99.90;;;;;;5013267;28;20030;-74
2023/06/22 05:11:26;;;;;;;9.45;8.52;;;20.40;99.90;;;;;;5013173;28;20487;-73
2023/06/22 05:13:52;;;;;;;10.68;9.00;;;20.40;99.90;;;;;;5013466;28;20029;-73
2023/06/22 05:16:23;;;;;;;10.98;9.18;;;20.40;99.90;;;;;;5012255;28;20037;-73
2023/06/22 05:18:56;;;;;;;12.00;8.85;;;20.40;99.90;;;;;;5013126;28;20129;-73
2023/06/22 05:21:23;;;;;;;11.10;9.00;;;20.40;99.90;;;;;;5011755;28;20085;-74
2023/06/22 05:23:51;;;;;;;10.52;9.43;;;20.60;99.90;;;;;;5011996;28;20038;-73
2023/06/22 05:26:18;;;;;;;11.02;9.77;;;20.70;99.90;;;;;;5011043;28;20048;-73
2023/06/22 05:28:47;;;;;;;11.65;9.90;;;20.90;99.90;;;;;;5012184;28;20025;-73
2023/06/22 05:31:14;;;;;;;10.05;8.95;;;20.90;99.90;;;;;;5012079;28;20042;-73
2023/06/22 05:33:41;;;;;;;11.27;9.52;;;20.80;99.90;;;;;;5011410;28;20045;-73
2023/06/22 05:36:07;;;;;;;10.32;9.27;;;20.70;99.90;;;;;;5006157;28;20022;-73
2023/06/22 05:38:33;;;;;;;10.68;8.63;;;20.60;99.90;;;;;;4993532;28;20038;-73
2023/06/22 05:40:59;;;;;;;13.13;9.70;;;20.70;99.90;;;;;;4999578;28;20030;-73
2023/06/22 05:43:25;;;;;;;9.52;8.52;;;20.80;99.90;;;;;;5012934;28;20475;-73
2023/06/22 05:45:51;;;;;;;9.73;8.80;;;20.80;99.90;;;;;;4998275;28;20042;-73
2023/06/22 05:48:17;;;;;;;9.50;8.23;;;20.70;99.90;;;;;;5002611;28;20040;-73
2023/06/22 05:50:43;;;;;;;11.15;8.25;;;20.70;99.90;;;;;;4997954;28;20041;-72
2023/06/22 05:53:10;;;;;;;9.80;8.57;;;20.80;99.90;;;;;;4997351;28;20037;-73
2023/06/22 05:55:36;;;;;;;9.45;8.05;;;20.90;99.90;;;;;;5006948;28;20398;-73
2023/06/22 05:58:03;;;;;;;9.52;7.85;;;20.80;99.90;;;;;;4996091;28;20034;-73
2023/06/22 06:00:29;;;;;;;9.52;8.63;;;20.80;99.90;;;;;;5008833;28;20034;-73
2023/06/22 06:02:56;;;;;;;9.05;8.15;;;20.80;99.90;;;;;;5008127;28;20460;-73
2023/06/22 06:05:23;;;;;;;10.00;9.10;;;21.00;99.90;;;;;;5007341;28;20034;-73
2023/06/22 06:07:49;;;;;;;9.65;8.73;;;21.10;99.90;;;;;;5006140;28;20050;-73
2023/06/22 06:10:15;;;;;;;10.10;9.10;;;21.00;99.90;;;;;;5010272;28;20439;-73
2023/06/22 06:12:42;;;;;;;9.10;8.13;;;21.00;99.90;;;;;;4992955;28;20053;-74
2023/06/22 06:15:08;;;;;;;10.63;8.93;;;21.00;99.90;;;;;;4992078;28;20038;-72
2023/06/22 06:17:34;;;;;;;10.73;9.63;;;21.00;99.90;;;;;;4992513;28;20023;-73
2023/06/22 06:20:01;;;;;;;10.23;8.98;;;21.00;99.90;;;;;;4991762;28;20042;-73
2023/06/22 06:22:27;;;;;;;9.95;8.95;;;21.00;99.90;;;;;;5007645;28;20030;-73
2023/06/22 06:24:53;;;;;;;9.90;8.85;;;21.00;99.90;;;;;;5005731;28;20038;-73
2023/06/22 06:27:19;;;;;;;13.52;9.23;;;21.00;99.90;;;;;;4994591;28;20038;-73
2023/06/22 06:29:47;;;;;;;9.90;8.90;;;20.90;99.90;;;;;;4992430;28;20037;-73
2023/06/22 06:32:14;;;;;;;9.43;8.45;;;20.90;99.90;;;;;;4991867;28;20403;-73
2023/06/22 06:34:40;;;;;;;10.60;8.45;;;20.60;99.90;;;;;;5007792;28;20026;-73
2023/06/22 06:37:06;;;;;;;9.75;8.43;;;20.50;99.90;;;;;;5007281;28;20026;-73
2023/06/22 06:39:32;;;;;;;10.38;7.97;;;20.50;99.90;;;;;;4992593;28;20025;-72
2023/06/22 06:41:58;;;;;;;9.05;8.10;;;20.60;99.90;;;;;;4996299;28;20030;-73
2023/06/22 06:44:24;;;;;;;10.15;9.20;;;20.70;99.90;;;;;;4992383;28;20023;-72
2023/06/22 06:46:50;;;;;;;9.85;8.60;;;20.70;99.90;;;;;;4992023;28;20396;-73
2023/06/22 06:49:17;;;;;;;9.68;8.68;;;20.70;99.90;;;;;;4992328;28;20046;-73
2023/06/22 06:51:43;;;;;;;10.40;9.20;;;20.80;99.90;;;;;;4992399;28;20368;-73
2023/06/22 06:54:09;;;;;;;9.18;8.25;;;20.70;99.90;;;;;;4992449;28;20034;-73
2023/06/22 06:56:36;;;;;;;11.23;9.05;;;20.70;99.90;;;;;;4992335;28;20424;-73
2023/06/22 06:59:02;;;;;;;10.65;9.32;;;20.60;99.90;;;;;;5020651;28;20049;-73
2023/06/22 07:01:33;;;;;;;10.75;9.23;;;20.60;99.90;;;;;;5000839;28;20057;-73
2023/06/22 07:04:00;;;;;;;10.27;9.27;;;20.60;99.90;;;;;;5007234;28;20022;-73
2023/06/22 07:06:28;;;;;;;11.57;9.57;;;20.60;99.90;;;;;;4992273;28;20049;-73
2023/06/22 07:08:55;;;;;;;10.57;9.50;;;20.50;99.90;;;;;;4992384;28;20030;-73
2023/06/22 07:11:21;;;;;;;10.75;8.55;;;20.50;99.90;;;;;;4992307;28;20049;-73
2023/06/22 07:13:47;;;;;;;11.35;9.13;;;20.50;99.90;;;;;;4990923;28;20043;-73
2023/06/22 07:16:13;;;;;;;9.63;8.73;;;20.50;99.90;;;;;;5017987;28;20038;-73
2023/06/22 07:18:40;;;;;;;10.15;7.88;;;20.50;99.90;;;;;;5015664;28;20030;-73
2023/06/22 07:21:06;;;;;;;12.20;8.50;;;20.50;99.90;;;;;;5015305;28;20490;-74
2023/06/22 07:23:33;;;;;;;12.15;8.15;;;20.30;99.90;;;;;;5014266;28;20049;-73
2023/06/22 07:26:02;;;;;;;11.20;7.47;;;20.40;99.90;;;;;;5014957;28;20034;-73
2023/06/22 07:28:30;;;;;;;11.52;7.00;;;20.40;99.90;;;;;;5013887;28;20033;-73
2023/06/22 07:30:57;;;;;;;9.02;7.15;;;20.30;99.90;;;;;;5014386;28;20041;-74
2023/06/22 07:33:23;;;;;;;9.32;6.75;;;20.20;99.90;;;;;;5014171;28;20030;-73
2023/06/22 07:35:52;;;;;;;9.25;7.75;;;20.20;99.90;;;;;;5005722;28;20027;-73
2023/06/22 07:38:18;;;;;;;10.57;7.18;;;20.10;99.90;;;;;;4975577;28;20039;-72
2023/06/22 07:40:44;;;;;;;8.15;7.35;;;20.00;99.90;;;;;;4984590;28;20038;-73
2023/06/22 07:43:10;;;;;;;8.27;7.45;;;20.00;99.90;;;;;;5013823;28;20463;-73
2023/06/22 07:45:39;;;;;;;10.45;7.00;;;19.90;99.90;;;;;;5013250;28;20053;-72
2023/06/22 07:48:06;;;;;;;9.45;7.25;;;19.90;99.90;;;;;;5004717;28;20522;-73
2023/06/22 07:50:32;;;;;;;8.50;6.63;;;20.00;99.90;;;;;;4997983;28;20041;-73
2023/06/22 07:52:58;;;;;;;8.30;6.97;;;19.90;99.90;;;;;;5013711;28;20037;-73
2023/06/22 07:55:25;;;;;;;7.50;6.68;;;20.00;99.90;;;;;;5013035;28;20029;-72
2023/06/22 07:57:51;;;;;;;11.48;7.57;;;19.90;99.90;;;;;;5014707;28;20030;-73
2023/06/22 08:00:18;;;;;;;9.23;6.93;;;20.00;99.90;;;;;;5012987;28;20025;-73
2023/06/22 08:02:47;;;;;;;11.10;7.45;;;20.10;99.90;;;;;;5009832;28;20047;-73
2023/06/22 08:05:14;;;;;;;7.90;6.50;;;20.10;99.90;;;;;;5009925;28;20030;-73
2023/06/22 08:07:43;;;;;;;9.95;7.45;;;20.00;99.90;;;;;;4994978;28;20022;-73
2023/06/22 08:10:10;;;;;;;13.80;7.43;;;19.90;99.90;;;;;;4995164;28;20062;-73
2023/06/22 08:12:36;;;;;;;8.75;7.22;;;19.90;99.90;;;;;;4994862;28;20403;-73
2023/06/22 08:15:03;;;;;;;7.90;6.82;;;19.80;99.90;;;;;;4993780;28;20039;-72
2023/06/22 08:17:30;;;;;;;9.15;7.22;;;19.80;99.90;;;;;;4994572;28;20595;-73
2023/06/22 08:19:57;;;;;;;11.90;7.32;;;19.80;99.90;;;;;;4994739;28;20030;-73
2023/06/22 08:22:23;;;;;;;9.20;7.30;;;19.80;99.90;;;;;;5009760;28;20202;-74
2023/06/22 08:24:49;;;;;;;9.48;6.95;;;19.80;99.90;;;;;;4994332;28;20033;-73
2023/06/22 08:27:16;;;;;;;8.65;6.68;;;19.90;99.90;;;;;;4993932;28;20035;-73
2023/06/22 08:29:42;;;;;;;8.95;7.82;;;20.00;99.90;;;;;;5009593;28;20849;-73
2023/06/22 08:32:09;;;;;;;8.45;7.53;;;20.00;99.90;;;;;;5010728;28;20050;-73
2023/06/22 08:34:36;;;;;;;8.48;7.63;;;20.00;99.90;;;;;;5012988;28;20033;-74
2023/06/22 08:37:06;;;;;;;8.10;7.30;;;20.20;99.90;;;;;;4968598;28;20049;-73
2023/06/22 08:39:32;;;;;;;9.88;7.72;;;20.40;99.90;;;;;;4973541;28;20027;-73
2023/06/22 08:41:58;;;;;;;10.55;8.35;;;20.50;99.90;;;;;;5003970;28;20034;-74
2023/06/22 08:44:25;;;;;;;7.97;7.13;;;20.50;99.90;;;;;;5012771;28;20034;-73
2023/06/22 08:46:51;;;;;;;8.57;6.65;;;20.50;99.90;;;;;;5011869;28;20044;-73
2023/06/22 08:49:17;;;;;;;9.27;7.80;;;20.40;99.90;;;;;;4995178;28;20049;-74
2023/06/22 08:51:45;;;;;;;9.25;8.18;;;20.50;99.90;;;;;;5006498;28;20053;-73
2023/06/22 08:54:11;;;;;;;9.60;8.50;;;20.60;99.90;;;;;;5013267;28;20451;-74
2023/06/22 08:56:37;;;;;;;9.82;7.68;;;20.60;99.90;;;;;;5013430;28;20045;-73
2023/06/22 08:59:03;;;;;;;7.97;7.05;;;20.80;99.90;;;;;;5013480;28;20395;-73
2023/06/22 09:01:29;;;;;;;8.30;7.50;;;20.70;99.90;;;;;;5000876;28;20045;-73
2023/06/22 09:03:57;;;;;;;8.68;7.72;;;20.60;99.90;;;;;;4993807;28;20472;-73
2023/06/22 09:06:24;;;;;;;10.80;9.90;;;20.40;99.90;;;;;;4993660;28;20110;-74
2023/06/22 09:08:50;;;;;;;10.27;9.30;;;20.50;99.90;;;;;;5008593;28;20019;-73
2023/06/22 09:11:16;;;;;;;11.80;9.95;;;20.50;99.90;;;;;;5008698;28;20034;-73
2023/06/22 09:13:42;;;;;;;10.60;9.50;;;20.60;99.90;;;;;;4993775;28;20037;-73
2023/06/22 09:16:08;;;;;;;11.65;10.45;;;20.70;99.90;;;;;;5001898;28;20049;-73
2023/06/22 09:18:36;;;;;;;11.90;10.80;;;20.80;99.90;;;;;;5028547;28;20034;-73
2023/06/22 09:21:02;;;;;;;10.75;9.70;;;20.90;99.90;;;;;;5012935;28;20030;-73
2023/06/22 09:23:28;;;;;;;12.00;10.90;;;20.80;99.90;;;;;;5013009;28;20030;-73
2023/06/22 09:25:54;;;;;;;14.30;13.07;;;20.80;99.90;;;;;;5028083;28;20026;-73
2023/06/22 09:28:20;;;;;;;11.35;10.23;;;20.80;99.90;;;;;;5012983;28;20033;-73
2023/06/22 09:30:46;;;;;;;14.68;13.38;;;20.90;99.90;;;;;;5027610;28;20782;-73
2023/06/22 09:33:13;;;;;;;14.02;12.63;;;20.90;99.90;;;;;;5011619;28;20046;-73
2023/06/22 09:35:39;;;;;;;13.00;8.57;;;20.90;99.90;;;;;;5007742;28;20034;-74
2023/06/22 09:38:05;;;;;;;12.77;11.60;;;20.80;99.90;;;;;;4973565;28;20038;-74
2023/06/22 09:40:35;;;;;;;10.40;9.30;;;20.90;99.90;;;;;;4977946;28;20034;-73
2023/06/22 09:43:01;;;;;;;13.33;12.23;;;20.90;99.90;;;;;;5012971;28;20499;-73
2023/06/22 09:45:27;;;;;;;15.18;13.98;;;20.90;99.90;;;;;;5011894;28;20280;-73
2023/06/22 09:47:53;;;;;;;13.75;12.52;;;21.10;99.90;;;;;;5020673;28;20506;-73
2023/06/22 09:50:19;;;;;;;14.18;12.88;;;21.10;99.90;;;;;;4994110;28;20030;-74
2023/06/22 09:52:50;;;;;;;10.57;9.57;;;21.20;99.90;;;;;;5012442;28;20419;-72
2023/06/22 09:55:16;;;;;;;9.98;8.88;;;21.20;99.90;;;;;;5012427;28;20020;-73
2023/06/22 09:57:42;;;;;;;12.20;8.95;;;21.30;99.90;;;;;;5011297;28;20038;-73
2023/06/22 10:00:09;;;;;;;11.38;8.38;;;21.30;99.90;;;;;;5012256;28;20030;-73
2023/06/22 10:02:35;;;;;;;9.80;8.35;;;21.30;99.90;;;;;;4975335;28;20046;-73
2023/06/22 10:05:01;;;;;;;9.45;8.38;;;21.10;99.90;;;;;;4992997;28;20034;-73
2023/06/22 10:07:27;;;;;;;9.10;8.13;;;21.00;99.90;;;;;;4991254;28;20061;-73
2023/06/22 10:09:53;;;;;;;9.57;8.65;;;20.90;99.90;;;;;;4993068;28;20023;-73
2023/06/22 10:12:19;;;;;;;11.27;8.15;;;20.90;99.90;;;;;;5007663;28;20476;-73
2023/06/22 10:14:45;;;;;;;9.02;7.90;;;21.00;99.90;;;;;;4992779;28;20031;-73
2023/06/22 10:17:12;;;;;;;11.00;8.50;;;21.00;99.90;;;;;;5009572;28;20406;-74
2023/06/22 10:19:38;;;;;;;12.13;9.57;;;21.00;99.90;;;;;;5011039;28;20463;-73
2023/06/22 10:22:05;;;;;;;11.90;9.48;;;21.20;99.90;;;;;;5011813;28;20045;-73
2023/06/22 10:24:31;;;;;;;9.82;8.55;;;21.30;99.90;;;;;;5011252;28;20045;-74
2023/06/22 10:26:57;;;;;;;9.75;8.35;;;21.30;99.90;;;;;;5010934;28;20046;-73
2023/06/22 10:29:23;;;;;;;10.25;9.20;;;21.40;99.90;;;;;;5012456;28;20368;-73
2023/06/22 10:31:49;;;;;;;11.88;9.38;;;21.50;99.90;;;;;;5011465;28;20061;-73
2023/06/22 10:34:15;;;;;;;9.95;7.95;;;21.60;99.90;;;;;;5011178;28;20053;-73
2023/06/22 10:36:41;;;;;;;9.23;8.32;;;21.60;99.90;;;;;;4988627;28;20039;-74
2023/06/22 10:39:08;;;;;;;9.60;8.70;;;21.70;99.90;;;;;;4973248;28;20035;-74
2023/06/22 10:41:35;;;;;;;10.82;9.15;;;21.70;99.90;;;;;;4994490;28;20379;-76
2023/06/22 10:44:02;;;;;;;9.93;9.02;;;21.80;99.90;;;;;;5011070;28;20493;-74
2023/06/22 10:46:28;;;;;;;9.65;8.45;;;21.80;99.90;;;;;;5010505;28;20372;-74
2023/06/22 10:48:56;;;;;;;9.90;8.77;;;21.70;99.90;;;;;;4995484;28;20057;-74
2023/06/22 10:51:22;;;;;;;10.77;8.30;;;21.70;99.90;;;;;;5003944;28;20049;-74
2023/06/22 10:53:49;;;;;;;10.07;8.70;;;21.80;99.90;;;;;;5015970;28;20363;-74
2023/06/22 10:56:15;;;;;;;10.95;8.45;;;21.90;99.90;;;;;;5014627;28;20034;-73
2023/06/22 10:58:41;;;;;;;9.95;9.05;;;22.00;99.90;;;;;;5015748;28;20036;-74
2023/06/22 11:01:07;;;;;;;10.38;9.38;;;22.10;99.90;;;;;;5007313;28;20034;-73
2023/06/22 11:03:33;;;;;;;10.05;9.07;;;22.30;99.90;;;;;;4996148;28;20026;-73
2023/06/22 11:05:59;;;;;;;10.68;9.13;;;22.30;99.90;;;;;;4995861;28;20035;-74
2023/06/22 11:08:25;;;;;;;12.05;9.82;;;22.50;99.90;;;;;;4996019;28;20037;-74
2023/06/22 11:10:51;;;;;;;9.90;9.10;;;22.50;99.90;;;;;;4995969;28;20487;-74
2023/06/22 11:13:18;;;;;;;9.55;8.65;;;22.60;99.90;;;;;;5011063;28;20050;-73
2023/06/22 11:15:44;;;;;;;9.77;8.98;;;22.80;99.90;;;;;;5016227;28;20537;-73
2023/06/22 11:18:10;;;;;;;12.20;8.90;;;23.00;99.90;;;;;;5014341;28;20030;-73
2023/06/22 11:20:38;;;;;;;10.27;8.90;;;23.20;99.90;;;;;;5013776;28;20089;-74
2023/06/22 11:23:06;;;;;;;9.38;8.48;;;23.30;99.90;;;;;;5015426;28;20029;-73
2023/06/22 11:25:34;;;;;;;10.25;9.15;;;23.60;99.90;;;;;;5013995;28;20037;-74
2023/06/22 11:28:04;;;;;;;9.82;9.02;;;23.50;99.90;;;;;;5014041;28;20074;-74
2023/06/22 11:30:30;;;;;;;9.82;8.82;;;23.50;99.90;;;;;;5013480;28;20049;-74
2023/06/22 11:32:58;;;;;;;9.27;8.43;;;23.60;99.90;;;;;;5014819;28;20034;-73
2023/06/22 11:35:24;;;;;;;9.30;8.48;;;23.70;99.90;;;;;;5012933;28;20036;-73
2023/06/22 11:37:50;;;;;;;10.45;9.52;;;23.90;99.90;;;;;;4976070;28;20416;-74
2023/06/22 11:40:17;;;;;;;9.57;8.82;;;24.00;99.90;;;;;;4977522;28;20046;-73
2023/06/22 11:42:43;;;;;;;9.85;8.98;;;24.10;99.90;;;;;;5014014;28;20037;-73
2023/06/22 11:45:09;;;;;;;10.32;9.32;;;24.20;99.90;;;;;;5014655;28;20041;-73
2023/06/22 11:47:36;;;;;;;9.23;8.45;;;24.30;99.90;;;;;;4979268;28;20360;-73
2023/06/22 11:50:03;;;;;;;10.02;9.13;;;24.20;99.90;;;;;;4994127;28;20046;-73
2023/06/22 11:52:29;;;;;;;10.35;9.52;;;24.20;99.90;;;;;;5012638;28;20050;-73
2023/06/22 11:54:55;;;;;;;10.15;9.35;;;24.40;99.90;;;;;;5014940;28;20033;-74
2023/06/22 11:57:21;;;;;;;9.75;8.95;;;24.60;99.90;;;;;;5013284;28;20056;-74
2023/06/22 11:59:47;;;;;;;11.02;9.93;;;24.70;99.90;;;;;;5014731;28;20045;-74
2023/06/22 12:02:13;;;;;;;9.80;9.07;;;24.90;99.90;;;;;;4995878;28;20419;-74
2023/06/22 12:04:39;;;;;;;10.50;9.50;;;25.00;99.90;;;;;;5010576;28;20022;-74
2023/06/22 12:07:05;;;;;;;10.05;9.05;;;25.10;99.90;;;;;;4994694;28;20045;-74
2023/06/22 12:09:31;;;;;;;10.43;9.40;;;25.20;99.90;;;;;;5010030;28;20448;-74
2023/06/22 12:11:57;;;;;;;9.60;8.80;;;25.20;99.90;;;;;;4994769;28;20042;-74
2023/06/22 12:14:24;;;;;;;9.95;9.25;;;25.10;99.90;;;;;;5010008;28;20042;-74
2023/06/22 12:16:50;;;;;;;9.70;8.80;;;25.20;99.90;;;;;;5008324;28;20046;-74
2023/06/22 12:19:16;;;;;;;9.93;8.93;;;25.30;99.90;;;;;;5013267;28;20383;-74
2023/06/22 12:21:45;;;;;;;11.88;10.95;;;25.50;99.90;;;;;;5012873;28;20030;-75
2023/06/22 12:24:11;;;;;;;11.77;10.88;;;25.60;99.90;;;;;;5014182;28;20018;-74
2023/06/22 12:26:37;;;;;;;10.93;10.05;;;25.60;99.90;;;;;;5029223;28;20505;-75
2023/06/22 12:29:03;;;;;;;10.68;9.75;;;25.70;99.90;;;;;;5014113;28;20033;-74
2023/06/22 12:31:29;;;;;;;11.10;10.20;;;25.70;99.90;;;;;;5013041;28;20526;-73
2023/06/22 12:33:55;;;;;;;13.00;12.15;;;25.80;99.90;;;;;;5029428;28;20034;-74
2023/06/22 12:36:22;;;;;;;13.00;12.05;;;25.90;99.90;;;;;;5020698;28;20467;-74